Rhode Island Logo

Providence, RI Single Family Real Estate Listings

223 Total Real Estate Listings * Click on table heading to sort
Date Posted Property Type Style Address Price Living Area Lot Size Price/Sq Ft.
2019-04-19 Single Family Bungalow 693 River Av Providence, RI 02908 $230,000 1,304 sq. ft. 3,920 sq. ft. $176
2019-04-19 Single Family Colonial 92 Henrietta St Providence, RI 02904 $274,900 1,560 sq. ft. 5,227 sq. ft. $176
2019-04-17 Single Family Colonial 3 Pallas St Providence, RI 02903 $389,000 1,372 sq. ft. 5,227 sq. ft. $284
2019-04-17 Single Family Bungalow 190 Enfield Av Providence, RI 02908 $239,000 991 sq. ft. 4,792 sq. ft. $241
2019-04-17 Single Family Cape Cod 3 Lark St Providence, RI 02909 $129,900 1,566 sq. ft. 7,405 sq. ft. $83
2019-04-16 Single Family Colonial 21 Vaughan St Providence, RI 02904 $199,900 1,250 sq. ft. 3,485 sq. ft. $160
2019-04-15 Single Family Colonial 25 Farragut St Providence, RI 02910 $249,900 1,536 sq. ft. 3,049 sq. ft. $163
2019-04-15 Single Family 55 Cyr St Providence, RI 02905 $289,900 1,560 sq. ft. 3,049 sq. ft. $186
2019-04-15 Single Family Cape Cod 23 Homefield Av Providence, RI 02908 $219,900 1,601 sq. ft. 4,792 sq. ft. $137
2019-04-15 Single Family Colonial; Victorian 203 California Av Providence, RI 02905 $229,900 1,360 sq. ft. 3,049 sq. ft. $169
2019-04-13 Single Family Cape Cod 72 Bolton Av Providence, RI 02908 $309,900 1,632 sq. ft. 4,792 sq. ft. $190
2019-04-13 Single Family Colonial 10 Leo Av Providence, RI 02904 $269,900 1,544 sq. ft. 4,792 sq. ft. $175
2019-04-13 Single Family 39 Althea St Providence, RI 02907 $135,000 1,080 sq. ft. 3,920 sq. ft. $125
2019-04-12 Single Family Ranch 57 Stansbury St Providence, RI 02908 $179,900 1,208 sq. ft. 4,792 sq. ft. $149
2019-04-11 Single Family Ranch 140 Leah St Providence, RI 02908 $235,000 1,285 sq. ft. 5,227 sq. ft. $183
2019-04-11 Single Family Bungalow 25 Geneva St Providence, RI 02908 $164,900 1,000 sq. ft. 3,049 sq. ft. $165
2019-04-11 Single Family Cape Cod 271 California Av Providence, RI 02905 $239,900 1,570 sq. ft. 3,049 sq. ft. $153
2019-04-11 Single Family Colonial 57 Sussex St Providence, RI 02908 $197,500 1,716 sq. ft. 3,920 sq. ft. $115
2019-04-10 Single Family Contemporary; Cottage 27 Padelford St Providence, RI 02906 $129,000 619 sq. ft. 3,485 sq. ft. $208
2019-04-10 Single Family Colonial 92 Salina St Providence, RI 02908 $184,900 1,440 sq. ft. 3,920 sq. ft. $128
2019-04-10 Single Family Cape Cod 32 Malvern St Providence, RI 02904 $200,000 2,018 sq. ft. 9,583 sq. ft. $99
2019-04-10 Single Family Bungalow 80 Carolina Av Providence, RI 02905 $159,900 923 sq. ft. 3,049 sq. ft. $173
2019-04-10 Single Family Colonial; Victorian 231 Lenox Av Providence, RI 02907 $249,900 1,875 sq. ft. 4,792 sq. ft. $133
2019-04-09 Single Family Raised Ranch 107 Harriet St Providence, RI 02905 $130,000 968 sq. ft. 3,049 sq. ft. $134
2019-04-09 Single Family Colonial 26 Zella St Providence, RI 02908 $225,000 1,000 sq. ft. 3,920 sq. ft. $225
2019-04-08 Single Family 239 Pavilion Av Providence, RI 02905 $159,900 1,440 sq. ft. 3,049 sq. ft. $111
2019-04-07 Single Family Colonial 136 Modena Av Providence, RI 02908 $240,000 1,360 sq. ft. 3,920 sq. ft. $176
2019-04-07 Single Family Bungalow 28 Edgeworth Av Providence, RI 02904 $189,900 1,096 sq. ft. 5,227 sq. ft. $173
2019-04-06 Single Family Bungalow 171 Kimball St Providence, RI 02908 $177,000 978 sq. ft. 5,227 sq. ft. $181
2019-04-06 Single Family 83 Gallup St Providence, RI 02907 $194,900 1,358 sq. ft. 3,049 sq. ft. $144
2019-04-06 Single Family Ranch 76 Isabella Av Providence, RI 02908 $238,900 1,104 sq. ft. 6,534 sq. ft. $216
2019-04-05 Single Family 124 River Av Providence, RI 02908 $225,000 1,178 sq. ft. 6,970 sq. ft. $191
2019-04-05 Single Family Cape Cod 42 Legion Memorial Dr Providence, RI 02909 $315,000 2,252 sq. ft. 7,405 sq. ft. $140
2019-04-04 Single Family Ranch 29 Shepard Av Providence, RI 02904 $225,000 1,080 sq. ft. 4,356 sq. ft. $208
2019-04-04 Single Family Colonial 114 Modena Av Providence, RI 02908 $229,000 1,454 sq. ft. 3,920 sq. ft. $158
2019-04-04 Single Family Cottage 2 Crown Av Providence, RI 02909 $162,500 1,186 sq. ft. 2,614 sq. ft. $137
2019-04-04 Single Family Cape Cod; Cottage 67 Langdon St Providence, RI 02904 $159,900 1,097 sq. ft. 8,712 sq. ft. $146
2019-04-03 Single Family Bungalow 6 Glover St Providence, RI 02908 $204,900 1,310 sq. ft. 3,485 sq. ft. $156
2019-04-03 Single Family Ranch 129 Springfield St Providence, RI 02909 $124,500 960 sq. ft. 3,049 sq. ft. $130
2019-04-03 Single Family Ranch 44 Standish Av Providence, RI 02908 $154,900 781 sq. ft. 3,920 sq. ft. $198
2019-04-02 Single Family Bungalow 137 Salina St Providence, RI 02908 $169,900 1,040 sq. ft. 3,920 sq. ft. $163
2019-04-02 Single Family 131 Devonshire St Providence, RI 02908 $314,999 1,750 sq. ft. 3,049 sq. ft. $180
2019-04-02 Single Family Colonial 39 Carr St Providence, RI 02905 $224,900 1,495 sq. ft. 3,049 sq. ft. $150
2019-04-01 Single Family Ranch 25 Ophelia St Providence, RI 02909 $199,900 1,008 sq. ft. 3,049 sq. ft. $198
2019-04-01 Single Family Cottage 41 Mitchell St Providence, RI 02907 $195,900 1,557 sq. ft. 3,049 sq. ft. $126
2019-04-01 Single Family Ranch 50 Prosper St Providence, RI 02904 $199,000 1,182 sq. ft. 6,970 sq. ft. $168
2019-04-01 Single Family Cape Cod 33 Boundary Av Providence, RI 02909 $155,000 1,203 sq. ft. 3,049 sq. ft. $129
2019-04-01 Single Family Ranch 47 Raphael Av Providence, RI 02904 $197,000 1,068 sq. ft. 5,227 sq. ft. $184
2019-04-01 Single Family Colonial; Cottage 44 Mercy St Providence, RI 02909 $180,000 1,256 sq. ft. 3,049 sq. ft. $143
2019-04-01 Single Family Single Family-Attached 54 Christopher St Providence, RI 02904 $195,500 1,164 sq. ft. 4,792 sq. ft. $168
2019-03-31 Single Family Tri-Level 63 Elmcroft Av Providence, RI 02908 $319,900 1,479 sq. ft. 5,663 sq. ft. $216
2019-03-31 Single Family Cape Cod 82 Moorefield St Providence, RI 02909 $198,000 1,190 sq. ft. 3,485 sq. ft. $166
2019-03-29 Single Family Ranch 2 Clove St Providence, RI 02908 $279,900 2,046 sq. ft. 5,663 sq. ft. $137
2019-03-29 Single Family Cape Cod 21 Washburn St Providence, RI 02908 $189,900 1,556 sq. ft. 2,178 sq. ft. $122
2019-03-29 Single Family Cottage 133 Carr St Providence, RI 02905 $169,000 1,059 sq. ft. 3,049 sq. ft. $160
2019-03-28 Single Family Historic 64 Arnold St Providence, RI 02906 $649,000 2,850 sq. ft. 3,485 sq. ft. $228
2019-03-28 Single Family Raised Ranch 18 Jacqueline Dr Providence, RI 02909 $264,900 1,686 sq. ft. 6,970 sq. ft. $157
2019-03-27 Single Family Cape Cod 326 Sharon St Providence, RI 02908 $257,900 1,562 sq. ft. 3,920 sq. ft. $165
2019-03-27 Single Family Ranch 43 Dedham Av Providence, RI 02909 $169,000 1,076 sq. ft. 3,049 sq. ft. $157
2019-03-27 Single Family Bungalow 5 Sibyl St Providence, RI 02909 $149,900 984 sq. ft. 5,227 sq. ft. $152
2019-03-25 Single Family Ranch 73 Chaucer St Providence, RI 02908 $210,000 1,092 sq. ft. 3,049 sq. ft. $192
2019-03-25 Single Family Cape Cod 49 Grape St Providence, RI 02908 $152,900 836 sq. ft. 2,178 sq. ft. $183
2019-03-24 Single Family Ranch 735 Mount Pleasant Av Providence, RI 02908 $209,900 868 sq. ft. 4,792 sq. ft. $242
2019-03-23 Single Family Ranch 144 Texas Av Providence, RI 02904 $214,000 1,032 sq. ft. 3,049 sq. ft. $207
2019-03-23 Single Family Colonial; Victorian 172 Oakland Av Providence, RI 02908 $325,000 2,687 sq. ft. 3,920 sq. ft. $121
2019-03-22 Single Family Ranch 16 Richland St Providence, RI 02909 $184,000 960 sq. ft. 4,792 sq. ft. $192
2019-03-22 Single Family Ranch 105 Galileo Av Providence, RI 02909 $249,000 1,256 sq. ft. 7,405 sq. ft. $198
2019-03-22 Single Family Colonial 70 Elmdale Av Providence, RI 02909 $229,900 1,623 sq. ft. 3,920 sq. ft. $142
2019-03-21 Single Family Cape Cod 73 Camden Av Providence, RI 02908 $174,900 786 sq. ft. 3,049 sq. ft. $223
2019-03-21 Single Family Cottage 8 Baldwin Ct Providence, RI 02907 $219,875 1,584 sq. ft. 3,049 sq. ft. $139
2019-03-21 Single Family Colonial 119 Laurel Hill Av Providence, RI 02909 $195,000 1,680 sq. ft. 3,920 sq. ft. $116
2019-03-20 Single Family Cottage 162 Camden Av Providence, RI 02908 $177,500 1,188 sq. ft. 3,049 sq. ft. $149
2019-03-20 Single Family Bungalow 21 Montrose St Providence, RI 02908 $185,000 1,503 sq. ft. 3,049 sq. ft. $123
2019-03-20 Single Family Ranch 49 Raymond St Providence, RI 02908 $169,500 988 sq. ft. 4,792 sq. ft. $172
2019-03-19 Single Family Colonial 373 Plainfield St Providence, RI 02909 $160,000 998 sq. ft. 6,970 sq. ft. $160
2019-03-19 Single Family Colonial 96 Ravenswood Av Providence, RI 02908 $249,900 1,700 sq. ft. 9,148 sq. ft. $147
2019-03-19 Single Family Ranch 177 Ortoleva Dr Providence, RI 02909 $219,900 1,185 sq. ft. 5,663 sq. ft. $186
2019-03-18 Single Family Bungalow 174 Windmill St Providence, RI 02904 $229,900 1,783 sq. ft. 4,356 sq. ft. $129
2019-03-18 Single Family Colonial 94 Sassafras St Providence, RI 02907 $199,000 1,320 sq. ft. 3,049 sq. ft. $151
2019-03-18 Single Family Colonial 217 Vermont Av Providence, RI 02905 $184,900 1,267 sq. ft. 3,049 sq. ft. $146
2019-03-17 Single Family 424 Hope St Providence, RI 02906 $559,000 2,749 sq. ft. 3,920 sq. ft. $203
2019-03-16 Single Family Ranch 335 Hawkins St Providence, RI 02904 $205,000 1,196 sq. ft. 3,920 sq. ft. $171
2019-03-15 Single Family Bungalow 11 Delmar St Providence, RI 02907 $199,900 1,706 sq. ft. 3,920 sq. ft. $117
2019-03-15 Single Family Ranch 14 Linda Ct Providence, RI 02904 $229,900 960 sq. ft. 6,534 sq. ft. $239
2019-03-14 Single Family Cape Cod 58 Ashmont St Providence, RI 02905 $184,900 1,116 sq. ft. 3,485 sq. ft. $166
2019-03-14 Single Family Colonial 30 Woodman St Providence, RI 02907 $259,000 1,440 sq. ft. 3,049 sq. ft. $180
2019-03-12 Single Family Bungalow 498 Union Av Providence, RI 02909 $159,900 1,260 sq. ft. 3,049 sq. ft. $127
2019-03-11 Single Family Colonial 40 Longmont St Providence, RI 02908 $225,000 1,500 sq. ft. 3,920 sq. ft. $150
2019-03-08 Single Family Raised Ranch 28 Ledge St Providence, RI 02904 $189,900 912 sq. ft. 3,920 sq. ft. $208
2019-03-06 Single Family Bungalow 210 Jastram St Providence, RI 02908 $264,900 1,902 sq. ft. 3,920 sq. ft. $139
2019-03-04 Single Family Raised Ranch 4 Linda Ct Providence, RI 02904 $239,000 1,026 sq. ft. 6,098 sq. ft. $233
2019-03-04 Single Family Historic 7 Mountain St Providence, RI 02909 $225,000 1,421 sq. ft. 2,614 sq. ft. $158
2019-03-04 Single Family Cape Cod; Colonial 81 Lennon St Providence, RI 02908 $299,900 1,400 sq. ft. 3,920 sq. ft. $214
2019-03-04 Single Family Cape Cod 596 Pleasant Valley Pkwy Providence, RI 02908 $229,900 1,243 sq. ft. 3,485 sq. ft. $185
2019-03-04 Single Family Cape Cod 91 Galileo Av Providence, RI 02909 $239,900 1,404 sq. ft. 6,534 sq. ft. $171
2019-03-04 Single Family Bungalow 131 Carr St Providence, RI 02905 $234,999 1,710 sq. ft. 3,049 sq. ft. $137
2019-03-04 Single Family Bungalow 52 Wisdom Av Providence, RI 02907 $169,000 1,540 sq. ft. 3,485 sq. ft. $110
2019-03-01 Single Family Colonial; Historic 158 Woodward Rd Providence, RI 02904 $399,900 3,770 sq. ft. 25,265 sq. ft. $106
2019-02-28 Single Family Bungalow 177 Cleveland St Providence, RI 02909 $169,900 1,198 sq. ft. 3,920 sq. ft. $142
2019-02-28 Single Family Colonial 124 Salina St Providence, RI 02908 $219,500 1,100 sq. ft. 3,920 sq. ft. $200
2019-02-27 Single Family Bungalow 221 - A Killingly St Providence, RI 02909 $99,000 504 sq. ft. 2,614 sq. ft. $196
2019-02-27 Single Family Ranch 245 Nelson St Providence, RI 02908 $220,000 1,045 sq. ft. 3,920 sq. ft. $211
2019-02-27 Single Family 107 Whitford Av Providence, RI 02908 $225,000 1,352 sq. ft. 4,792 sq. ft. $166
2019-02-26 Single Family Bungalow 73 Pavilion Av Providence, RI 02905 $109,900 728 sq. ft. 1,742 sq. ft. $151
2019-02-26 Single Family Colonial 46 Rowley St Providence, RI 02909 $272,500 1,878 sq. ft. 6,970 sq. ft. $145
2019-02-25 Single Family Colonial 14 Thurston St Providence, RI 02907 $214,900 973 sq. ft. 3,485 sq. ft. $221
2019-02-24 Single Family Colonial 34 Vandewater St Providence, RI 02908 $225,000 1,600 sq. ft. 3,049 sq. ft. $141
2019-02-24 Single Family Colonial 92 Erie St Providence, RI 02908 $269,000 1,700 sq. ft. 4,792 sq. ft. $158
2019-02-23 Single Family 36 Hendrick St Providence, RI 02908 $178,000 1,144 sq. ft. 2,178 sq. ft. $156
2019-02-23 Single Family Colonial 43 Priscilla Av Providence, RI 02909 $224,900 1,840 sq. ft. 3,485 sq. ft. $122
2019-02-21 Single Family Colonial 22 Rosedale St Providence, RI 02909 $154,900 1,627 sq. ft. 2,178 sq. ft. $95
2019-02-21 Single Family Cape Cod 17 Kentland Av Providence, RI 02904 $199,000 1,075 sq. ft. 3,920 sq. ft. $185
2019-02-21 Single Family Raised Ranch 4 Cloud St Providence, RI 02909 $240,000 1,008 sq. ft. 4,356 sq. ft. $238
2019-02-21 Single Family Ranch 141 Ortoleva Dr Providence, RI 02909 $174,500 960 sq. ft. 3,049 sq. ft. $182
2019-02-21 Single Family Colonial 100 Ohio Av Providence, RI 02905 $209,900 1,736 sq. ft. 3,049 sq. ft. $121
2019-02-21 Single Family Colonial 108 Allston St Providence, RI 02908 $199,900 1,232 sq. ft. 3,485 sq. ft. $162
2019-02-20 Single Family Cape Cod 340 Eaton St Providence, RI 02908 $234,900 1,716 sq. ft. 5,663 sq. ft. $137
2019-02-19 Single Family Ranch 119 Ortoleva Dr Providence, RI 02909 $215,900 984 sq. ft. 3,049 sq. ft. $219
2019-02-19 Single Family Ranch 9 Zella St Providence, RI 02908 $155,000 996 sq. ft. 3,049 sq. ft. $156
2019-02-16 Single Family Cape Cod 302 Eaton St Providence, RI 02908 $329,000 1,836 sq. ft. 6,098 sq. ft. $179
2019-02-15 Single Family Contemporary 14 Maxcy Dr Providence, RI 02906 $689,900 4,392 sq. ft. 9,148 sq. ft. $157
2019-02-15 Single Family Cape Cod 270 Laurel Hill Av Providence, RI 02909 $119,900 1,078 sq. ft. 7,841 sq. ft. $111
2019-02-15 Single Family Raised Ranch 73 Prescott St Providence, RI 02908 $149,800 864 sq. ft. 7,405 sq. ft. $173
2019-02-15 Single Family Cottage 290 Admiral St Providence, RI 02908 $149,900 1,276 sq. ft. 3,049 sq. ft. $117
2019-02-15 Single Family Colonial 418 Sharon St Providence, RI 02908 $224,900 1,240 sq. ft. 4,792 sq. ft. $181
2019-02-14 Single Family Bungalow 52 Maple St Providence, RI 02903 $214,500 1,811 sq. ft. 3,485 sq. ft. $118
2019-02-14 Single Family Colonial 25 Gesler St Providence, RI 02909 $365,000 2,200 sq. ft. 2,614 sq. ft. $166
2019-02-14 Single Family Colonial 165 Windmill St Providence, RI 02904 $299,900 2,020 sq. ft. 9,148 sq. ft. $148
2019-02-12 Single Family Colonial 59 Lasalle Dr Providence, RI 02909 $299,900 1,560 sq. ft. 10,019 sq. ft. $192
2019-02-11 Single Family Ranch 35 Verdic Av Providence, RI 02909 $264,900 1,344 sq. ft. 5,663 sq. ft. $197
2019-02-11 Single Family Colonial 250 Gallatin St Providence, RI 02907 $134,900 1,505 sq. ft. 4,792 sq. ft. $90
2019-02-08 Single Family Ranch 14 Iona St Providence, RI 02908 $212,000 1,057 sq. ft. 3,049 sq. ft. $201
2019-02-07 Single Family Colonial 51 Burnside St Providence, RI 02905 $179,000 1,564 sq. ft. 3,049 sq. ft. $114
2019-02-07 Single Family Colonial 29 Maplehurst Av Providence, RI 02909 $199,900 1,488 sq. ft. 3,920 sq. ft. $134
2019-02-05 Single Family Colonial 27 Benedict St Providence, RI 02907 $149,900 874 sq. ft. 3,920 sq. ft. $172
2019-02-05 Single Family Ranch 18 Lynch St Providence, RI 02908 $140,000 960 sq. ft. 3,485 sq. ft. $146
2019-02-05 Single Family Ranch 121 Hazael St Providence, RI 02908 $179,900 1,222 sq. ft. 3,920 sq. ft. $147
2019-02-04 Single Family Cape Cod 57 Rome Av Providence, RI 02908 $279,900 1,382 sq. ft. 7,405 sq. ft. $203
2019-02-04 Single Family Ranch 187 Isabella Av Providence, RI 02908 $226,900 1,055 sq. ft. 4,356 sq. ft. $215
2019-02-01 Single Family Ranch 15 Brentwood Av Providence, RI 02908 $365,000 2,738 sq. ft. 10,890 sq. ft. $133
2019-01-31 Single Family Cape Cod 145 Sunbury St Providence, RI 02908 $137,700 908 sq. ft. 3,049 sq. ft. $152
2019-01-30 Single Family Colonial 47 Leslie Dr Providence, RI 02908 $359,900 2,766 sq. ft. 9,583 sq. ft. $130
2019-01-30 Single Family Cape Cod 140 Dover St Providence, RI 02908 $149,900 1,036 sq. ft. 3,049 sq. ft. $145
2019-01-28 Single Family Raised Ranch 90 Hilarity St Providence, RI 02909 $254,900 1,000 sq. ft. 4,792 sq. ft. $255
2019-01-28 Single Family Colonial 88 Henrietta St Providence, RI 02904 $274,900 1,560 sq. ft. 5,227 sq. ft. $176
2019-01-27 Single Family Cape Cod; Colonial 902 Douglas Av Providence, RI 02908 $199,000 1,200 sq. ft. 3,049 sq. ft. $166
2019-01-27 Single Family Bungalow 92 Crescent St Providence, RI 02907 $313,900 2,304 sq. ft. 5,663 sq. ft. $136
2019-01-26 Single Family Colonial 831 Charles St Providence, RI 02904 $184,900 1,450 sq. ft. 4,356 sq. ft. $128
2019-01-25 Single Family Colonial 90 Baxter St Providence, RI 02905 $179,700 800 sq. ft. 3,049 sq. ft. $225
2019-01-25 Single Family Ranch 144 Nelson St Providence, RI 02908 $194,900 1,008 sq. ft. 3,920 sq. ft. $193
2019-01-24 Single Family Ranch 593 Academy Av Providence, RI 02908 $259,900 1,092 sq. ft. 7,841 sq. ft. $238
2019-01-22 Single Family 640 Public St Providence, RI 02907 $169,900 2,178 sq. ft. 2,614 sq. ft. $78
2019-01-21 Single Family Historic; Victorian 234 Lenox Av Providence, RI 02907 $229,900 3,835 sq. ft. 10,019 sq. ft. $60
2019-01-14 Single Family Cottage 191 Pleasant St Providence, RI 02906 $479,000 2,086 sq. ft. 5,663 sq. ft. $230
2019-01-13 Single Family Bungalow 150 Salina St Providence, RI 02908 $165,500 1,405 sq. ft. 0 sq. ft. $118
2019-01-08 Single Family Ranch 42 Barden St Providence, RI 02909 $175,000 960 sq. ft. 3,920 sq. ft. $182
2019-01-07 Single Family Colonial 145 Dante St Providence, RI 02908 $189,000 1,428 sq. ft. 4,356 sq. ft. $132
2019-01-07 Single Family Colonial 76 Ralph St Providence, RI 02909 $114,900 1,197 sq. ft. 4,792 sq. ft. $96
2019-01-07 Single Family Bungalow 29 Mount Pleasant Av Providence, RI 02908 $79,900 1,296 sq. ft. 3,920 sq. ft. $62
2019-01-02 Single Family 75 Forest St Providence, RI 02906 $395,000 1,630 sq. ft. 5,227 sq. ft. $242
2019-01-01 Single Family Cottage 31 Farragut Av Providence, RI 02905 $189,000 1,475 sq. ft. 3,049 sq. ft. $128
2018-12-30 Single Family Colonial 133 Clematis St Providence, RI 02908 $149,000 1,249 sq. ft. 5,663 sq. ft. $119
2018-12-29 Single Family Bungalow 148 Johnson Street St Providence, RI 02905 $168,500 1,279 sq. ft. 3,049 sq. ft. $132
2018-12-26 Single Family 72 Eliza St Providence, RI 02909 $179,900 1,008 sq. ft. 6,534 sq. ft. $178
2018-12-07 Single Family Raised Ranch 12 Ortoleva Dr Providence, RI 02909 $249,900 2,304 sq. ft. 3,049 sq. ft. $108
2018-12-04 Single Family Ranch 33 Balmoral Av Providence, RI 02908 $219,000 1,026 sq. ft. 5,227 sq. ft. $213
2018-12-03 Single Family Bungalow 31 Brockton St Providence, RI 02904 $239,900 1,284 sq. ft. 3,485 sq. ft. $187
2018-12-01 Single Family 13 - 17 Madison St Providence, RI 02907 $44,900 1,234 sq. ft. 2,178 sq. ft. $36
2018-11-29 Single Family Colonial 216 Broadway Wy Providence, RI 02903 $440,000 5,562 sq. ft. 6,098 sq. ft. $79
2018-11-29 Single Family Colonial 35 Alger Av Providence, RI 02907 $235,000 1,300 sq. ft. 9,148 sq. ft. $181
2018-11-23 Single Family Colonial Providence, RI $170,000 1,080 sq. ft. 4,356 sq. ft. $157
2018-11-20 Single Family Bungalow; Colonial 212 Gray St Providence, RI 02908 $268,755 1,658 sq. ft. 6,098 sq. ft. $162
2018-11-19 Single Family 102 Colfax St Providence, RI 02905 $174,900 1,267 sq. ft. 4,356 sq. ft. $138
2018-11-19 Single Family Bungalow 197 Warrington St Providence, RI 02907 $170,000 1,982 sq. ft. 0 sq. ft. $86
2018-11-19 Single Family Colonial 184 Fruit Hill Av Providence, RI 02911 $309,900 1,456 sq. ft. 10,890 sq. ft. $213
2018-11-16 Single Family Cape Cod 71 Corina St Providence, RI 02908 $183,000 1,796 sq. ft. 3,049 sq. ft. $102
2018-11-15 Single Family Colonial; Historic 145 Lexington Av Providence, RI 02907 $214,900 2,837 sq. ft. 8,276 sq. ft. $76
2018-11-13 Single Family Ranch 21 Bel Air Dr Providence, RI 02911 $199,900 899 sq. ft. 7,405 sq. ft. $222
2018-11-13 Single Family Raised Ranch 25 Horton St Providence, RI 02904 $199,900 984 sq. ft. 4,792 sq. ft. $203
2018-11-01 Single Family Cape Cod 213 Unit St Providence, RI 02909 $149,900 720 sq. ft. 4,792 sq. ft. $208
2018-11-01 Single Family 95 Providence St Providence, RI 02907 $180,000 1,620 sq. ft. 4,792 sq. ft. $111
2018-10-31 Single Family Cape Cod; Colonial; Raised Ranch 44 Corinth St Providence, RI 02907 $222,000 1,856 sq. ft. 4,356 sq. ft. $120
2018-10-31 Single Family Ranch 20 Calhoun Av Providence, RI 02907 $173,500 1,056 sq. ft. 2,614 sq. ft. $164
2018-10-28 Single Family Cape Cod; Colonial 41 Homer St Providence, RI 02905 $199,000 1,344 sq. ft. 2,178 sq. ft. $148
2018-10-26 Single Family Colonial 132 Warrington St Providence, RI 02907 $159,900 1,362 sq. ft. 4,792 sq. ft. $117
2018-10-21 Single Family Cottage 9 Sawyer St Providence, RI 02907 $250,000 1,400 sq. ft. 5,227 sq. ft. $179
2018-10-14 Single Family Bungalow 87 Terrace Av Providence, RI 02909 $159,900 1,300 sq. ft. 3,049 sq. ft. $123
2018-10-13 Single Family Cape Cod 87 Jastram St Providence, RI 02908 $269,900 1,401 sq. ft. 4,792 sq. ft. $193
2018-10-11 Single Family Colonial 19 Basswood Av Providence, RI 02908 $269,900 2,036 sq. ft. 5,227 sq. ft. $133
2018-10-02 Single Family Colonial 29 Farragut Av Providence, RI 02905 $249,900 1,728 sq. ft. 3,049 sq. ft. $145
2018-09-26 Single Family Bungalow 12 Searle St Providence, RI 02905 $179,900 1,995 sq. ft. 2,178 sq. ft. $90
2018-09-14 Single Family Raised Ranch 61 Trask St Providence, RI 02905 $45,000 1,204 sq. ft. 6,534 sq. ft. $37
2018-09-12 Single Family 98 Atlantic Av Providence, RI 02907 $140,000 1,566 sq. ft. 3,920 sq. ft. $89
2018-09-02 Single Family Ranch 113 Lubec St Providence, RI 02904 $179,900 1,004 sq. ft. 3,049 sq. ft. $179
2018-08-27 Single Family Raised Ranch 12 Linda Ct Providence, RI 02904 $209,900 920 sq. ft. 6,098 sq. ft. $228
2018-08-23 Single Family Cape Cod 14 Plymouth St Providence, RI 02907 $89,900 832 sq. ft. 2,614 sq. ft. $108
2018-08-14 Single Family Raised Ranch 973 Douglas Av Providence, RI 02908 $269,900 1,288 sq. ft. 4,792 sq. ft. $210
2018-08-06 Single Family Raised Ranch 776 Mount Pleasant Av Providence, RI 02908 $274,000 1,400 sq. ft. 8,276 sq. ft. $196
2018-08-05 Single Family Cape Cod 59 Webster Av Providence, RI 02909 $189,000 1,244 sq. ft. 2,178 sq. ft. $152
2018-06-29 Single Family Colonial 558 Pleasant Valley Pkwy Providence, RI 02908 $274,900 2,644 sq. ft. 13,068 sq. ft. $104
2018-06-06 Single Family Bungalow 176 Jastram St Providence, RI 02908 $234,900 1,200 sq. ft. 4,792 sq. ft. $196
2018-06-05 Single Family Colonial 1003 Douglas Av Providence, RI 02904 $189,000 1,664 sq. ft. 3,485 sq. ft. $114
2018-05-31 Single Family Colonial 125 Reservoir Av Providence, RI 02907 $189,900 1,347 sq. ft. 3,049 sq. ft. $141
2018-05-10 Single Family Colonial 39 Hymer St Providence, RI 02908 $249,000 1,700 sq. ft. 3,049 sq. ft. $146
2018-05-08 Single Family Ranch 1 Ralston St Providence, RI 02904 $248,000 1,136 sq. ft. 7,405 sq. ft. $218
2018-04-16 Single Family Bungalow 45 Sisson St Providence, RI 02909 $174,900 1,248 sq. ft. 3,049 sq. ft. $140
2018-03-21 Single Family Cottage; Victorian 183 Alabama Av Providence, RI 02905 $239,900 1,200 sq. ft. 6,534 sq. ft. $200
2018-03-17 Single Family Bungalow 222 Sterling Av Providence, RI 02909 $159,900 1,230 sq. ft. 3,920 sq. ft. $130
2017-10-21 Single Family Colonial 9 Applegate Lane Providence, RI 02905 $184,900 1,386 sq. ft. 2,614 sq. ft. $133
2017-09-13 Single Family Colonial; Cottage 69 - 61,71 Thornton St Providence, RI 02909 $190,000 1,636 sq. ft. 8,276 sq. ft. $116
2017-09-11 Single Family Cottage 52 Borinquen St Providence, RI 02905 $129,900 1,266 sq. ft. 7,405 sq. ft. $103
2017-08-24 Single Family Ranch 19 Bassi Lane Providence, RI 02909 $219,900 1,712 sq. ft. 13,068 sq. ft. $128
2017-08-14 Single Family Victorian 68 Pitman St Providence, RI 02906 $399,000 1,119 sq. ft. 7,841 sq. ft. $357
2017-07-06 Single Family Ranch 9 Evelyn St Providence, RI 02909 $189,000 1,056 sq. ft. 6,970 sq. ft. $179
2017-06-26 Single Family Bungalow 263 California Av Providence, RI 02905 $139,900 1,508 sq. ft. 3,049 sq. ft. $93
2017-05-20 Single Family Split Level 86 Erie St Providence, RI 02908 $289,900 1,387 sq. ft. 6,098 sq. ft. $209
2017-05-03 Single Family Ranch 24 Brockton St Providence, RI 02904 $179,000 1,258 sq. ft. 6,534 sq. ft. $142
2017-03-30 Single Family Victorian 137 Wallace St Providence, RI 02909 $199,900 2,346 sq. ft. 3,920 sq. ft. $85
2017-03-28 Single Family Colonial 23 Annie St Providence, RI 02908 $279,900 1,560 sq. ft. 3,920 sq. ft. $179
2017-03-27 Single Family Bungalow 126 Washington Av Providence, RI 02905 $119,900 840 sq. ft. 3,485 sq. ft. $143
2017-03-21 Single Family Colonial 37 Homer St Providence, RI 02905 $90,000 3,049 sq. ft.
2017-03-15 Single Family Contemporary 92 Seamans St Providence, RI 02908 $199,000 1,082 sq. ft. 8,276 sq. ft. $184
2017-03-07 Single Family Colonial 122 Laban St Providence, RI 02909 $249,900 1,768 sq. ft. 10,019 sq. ft. $141